sensor_id;sensor_type;location;lat;lon;timestamp;P1;durP1;ratioP1;P2;durP2;ratioP2
13366;SDS011;6752;52.612;13.630;2023-03-01T00:00:48;15.63;;;13.85;;
13366;SDS011;6752;52.612;13.630;2023-03-01T00:05:50;19.02;;;14.68;;
13366;SDS011;6752;52.612;13.630;2023-03-01T00:11:10;16.42;;;14.23;;
13366;SDS011;6752;52.612;13.630;2023-03-01T00:16:14;18.13;;;15.30;;
13366;SDS011;6752;52.612;13.630;2023-03-01T00:21:16;18.80;;;15.70;;
13366;SDS011;6752;52.612;13.630;2023-03-01T00:26:18;20.10;;;14.68;;
13366;SDS011;6752;52.612;13.630;2023-03-01T00:31:21;18.02;;;15.25;;
13366;SDS011;6752;52.612;13.630;2023-03-01T00:36:24;16.67;;;14.48;;
13366;SDS011;6752;52.612;13.630;2023-03-01T00:41:25;15.80;;;14.13;;
13366;SDS011;6752;52.612;13.630;2023-03-01T00:46:31;18.40;;;15.00;;
13366;SDS011;6752;52.612;13.630;2023-03-01T00:51:33;18.33;;;13.88;;
13366;SDS011;6752;52.612;13.630;2023-03-01T01:01:37;17.40;;;13.62;;
13366;SDS011;6752;52.612;13.630;2023-03-01T01:11:41;15.52;;;13.73;;
13366;SDS011;6752;52.612;13.630;2023-03-01T01:16:44;15.70;;;12.98;;
13366;SDS011;6752;52.612;13.630;2023-03-01T01:21:46;16.55;;;13.90;;
13366;SDS011;6752;52.612;13.630;2023-03-01T01:26:49;17.12;;;13.85;;
13366;SDS011;6752;52.612;13.630;2023-03-01T01:31:51;15.57;;;13.95;;
13366;SDS011;6752;52.612;13.630;2023-03-01T01:36:53;15.18;;;13.02;;
13366;SDS011;6752;52.612;13.630;2023-03-01T01:41:56;16.00;;;13.38;;
13366;SDS011;6752;52.612;13.630;2023-03-01T01:47:00;16.50;;;13.30;;
13366;SDS011;6752;52.612;13.630;2023-03-01T01:52:05;19.17;;;13.95;;
13366;SDS011;6752;52.612;13.630;2023-03-01T01:57:13;14.87;;;13.35;;
13366;SDS011;6752;52.612;13.630;2023-03-01T02:02:14;17.12;;;14.32;;
13366;SDS011;6752;52.612;13.630;2023-03-01T02:07:17;16.40;;;12.77;;
13366;SDS011;6752;52.612;13.630;2023-03-01T02:12:23;18.37;;;15.18;;
13366;SDS011;6752;52.612;13.630;2023-03-01T02:17:21;19.25;;;15.65;;
13366;SDS011;6752;52.612;13.630;2023-03-01T02:22:24;16.70;;;14.23;;
13366;SDS011;6752;52.612;13.630;2023-03-01T02:27:27;16.42;;;13.30;;
13366;SDS011;6752;52.612;13.630;2023-03-01T02:32:28;18.02;;;15.77;;
13366;SDS011;6752;52.612;13.630;2023-03-01T02:37:30;17.42;;;14.13;;
13366;SDS011;6752;52.612;13.630;2023-03-01T02:42:35;19.30;;;15.93;;
13366;SDS011;6752;52.612;13.630;2023-03-01T02:47:35;16.42;;;14.18;;
13366;SDS011;6752;52.612;13.630;2023-03-01T02:52:41;18.15;;;14.32;;
13366;SDS011;6752;52.612;13.630;2023-03-01T02:57:46;17.52;;;13.90;;
13366;SDS011;6752;52.612;13.630;2023-03-01T03:07:50;19.65;;;14.98;;
13366;SDS011;6752;52.612;13.630;2023-03-01T03:12:53;17.55;;;14.95;;
13366;SDS011;6752;52.612;13.630;2023-03-01T03:38:04;19.08;;;16.20;;
13366;SDS011;6752;52.612;13.630;2023-03-01T03:43:09;21.15;;;15.73;;
13366;SDS011;6752;52.612;13.630;2023-03-01T03:48:08;22.33;;;17.12;;
13366;SDS011;6752;52.612;13.630;2023-03-01T03:53:10;21.00;;;17.40;;
13366;SDS011;6752;52.612;13.630;2023-03-01T03:58:12;20.10;;;15.80;;
13366;SDS011;6752;52.612;13.630;2023-03-01T04:03:14;21.05;;;16.80;;
13366;SDS011;6752;52.612;13.630;2023-03-01T04:08:17;18.58;;;15.88;;
13366;SDS011;6752;52.612;13.630;2023-03-01T04:13:20;18.60;;;16.65;;
13366;SDS011;6752;52.612;13.630;2023-03-01T04:18:22;19.73;;;14.90;;
13366;SDS011;6752;52.612;13.630;2023-03-01T04:23:24;17.25;;;15.38;;
13366;SDS011;6752;52.612;13.630;2023-03-01T04:28:33;16.30;;;14.63;;
13366;SDS011;6752;52.612;13.630;2023-03-01T04:38:49;16.45;;;14.68;;
13366;SDS011;6752;52.612;13.630;2023-03-01T04:48:53;16.25;;;14.57;;
13366;SDS011;6752;52.612;13.630;2023-03-01T04:53:56;19.27;;;15.90;;
13366;SDS011;6752;52.612;13.630;2023-03-01T04:58:58;16.42;;;14.68;;
13366;SDS011;6752;52.612;13.630;2023-03-01T05:04:00;18.67;;;15.00;;
13366;SDS011;6752;52.612;13.630;2023-03-01T05:19:06;21.05;;;17.33;;
13366;SDS011;6752;52.612;13.630;2023-03-01T05:24:15;20.67;;;18.65;;
13366;SDS011;6752;52.612;13.630;2023-03-01T05:29:18;21.77;;;19.70;;
13366;SDS011;6752;52.612;13.630;2023-03-01T05:39:28;20.48;;;18.17;;
13366;SDS011;6752;52.612;13.630;2023-03-01T05:44:29;20.58;;;16.58;;
13366;SDS011;6752;52.612;13.630;2023-03-01T05:49:31;22.65;;;18.15;;
13366;SDS011;6752;52.612;13.630;2023-03-01T06:04:37;19.25;;;16.37;;
13366;SDS011;6752;52.612;13.630;2023-03-01T06:09:40;25.50;;;18.55;;
13366;SDS011;6752;52.612;13.630;2023-03-01T06:14:42;21.00;;;18.73;;
13366;SDS011;6752;52.612;13.630;2023-03-01T06:19:45;30.90;;;21.85;;
13366;SDS011;6752;52.612;13.630;2023-03-01T06:24:47;34.75;;;22.60;;
13366;SDS011;6752;52.612;13.630;2023-03-01T06:29:49;39.75;;;25.85;;
13366;SDS011;6752;52.612;13.630;2023-03-01T06:34:52;65.80;;;36.63;;
13366;SDS011;6752;52.612;13.630;2023-03-01T06:39:54;40.65;;;26.50;;
13366;SDS011;6752;52.612;13.630;2023-03-01T06:44:57;32.50;;;23.15;;
13366;SDS011;6752;52.612;13.630;2023-03-01T06:49:59;28.48;;;21.80;;
13366;SDS011;6752;52.612;13.630;2023-03-01T06:55:02;43.47;;;26.83;;
13366;SDS011;6752;52.612;13.630;2023-03-01T07:00:04;39.42;;;24.50;;
13366;SDS011;6752;52.612;13.630;2023-03-01T07:05:06;39.50;;;25.15;;
13366;SDS011;6752;52.612;13.630;2023-03-01T07:10:09;40.72;;;24.73;;
13366;SDS011;6752;52.612;13.630;2023-03-01T07:15:11;31.73;;;21.25;;
13366;SDS011;6752;52.612;13.630;2023-03-01T07:20:13;19.23;;;15.15;;
13366;SDS011;6752;52.612;13.630;2023-03-01T07:25:16;20.85;;;16.23;;
13366;SDS011;6752;52.612;13.630;2023-03-01T07:30:18;19.90;;;15.63;;
13366;SDS011;6752;52.612;13.630;2023-03-01T07:35:21;17.08;;;14.90;;
13366;SDS011;6752;52.612;13.630;2023-03-01T07:40:23;22.75;;;16.25;;
13366;SDS011;6752;52.612;13.630;2023-03-01T07:45:25;18.62;;;14.52;;
13366;SDS011;6752;52.612;13.630;2023-03-01T07:55:30;20.15;;;14.02;;
13366;SDS011;6752;52.612;13.630;2023-03-01T08:00:32;21.02;;;15.35;;
13366;SDS011;6752;52.612;13.630;2023-03-01T08:05:34;17.87;;;14.18;;
13366;SDS011;6752;52.612;13.630;2023-03-01T08:10:37;18.02;;;13.10;;
13366;SDS011;6752;52.612;13.630;2023-03-01T08:15:39;18.90;;;12.13;;
13366;SDS011;6752;52.612;13.630;2023-03-01T08:25:44;15.95;;;11.82;;
13366;SDS011;6752;52.612;13.630;2023-03-01T08:30:46;15.07;;;11.10;;
13366;SDS011;6752;52.612;13.630;2023-03-01T08:35:48;16.20;;;10.95;;
13366;SDS011;6752;52.612;13.630;2023-03-01T08:40:51;15.02;;;10.35;;
13366;SDS011;6752;52.612;13.630;2023-03-01T08:45:53;17.10;;;10.75;;
13366;SDS011;6752;52.612;13.630;2023-03-01T08:50:56;14.35;;;9.25;;
13366;SDS011;6752;52.612;13.630;2023-03-01T08:55:59;17.48;;;9.55;;
13366;SDS011;6752;52.612;13.630;2023-03-01T09:01:01;12.70;;;9.05;;
13366;SDS011;6752;52.612;13.630;2023-03-01T09:06:05;17.90;;;9.77;;
13366;SDS011;6752;52.612;13.630;2023-03-01T09:11:08;18.20;;;10.13;;
13366;SDS011;6752;52.612;13.630;2023-03-01T09:16:14;14.77;;;8.77;;
13366;SDS011;6752;52.612;13.630;2023-03-01T09:21:16;18.85;;;10.13;;
13366;SDS011;6752;52.612;13.630;2023-03-01T09:26:19;14.87;;;9.63;;
13366;SDS011;6752;52.612;13.630;2023-03-01T09:31:23;15.20;;;10.15;;
13366;SDS011;6752;52.612;13.630;2023-03-01T09:36:25;17.27;;;8.82;;
13366;SDS011;6752;52.612;13.630;2023-03-01T09:41:48;15.43;;;8.43;;
13366;SDS011;6752;52.612;13.630;2023-03-01T09:46:48;13.65;;;8.40;;
13366;SDS011;6752;52.612;13.630;2023-03-01T09:51:58;16.50;;;9.15;;
13366;SDS011;6752;52.612;13.630;2023-03-01T10:13:03;8.00;;;4.50;;
13366;SDS011;6752;52.612;13.630;2023-03-01T10:18:09;9.93;;;4.78;;
13366;SDS011;6752;52.612;13.630;2023-03-01T10:23:09;8.70;;;4.37;;
13366;SDS011;6752;52.612;13.630;2023-03-01T10:28:18;7.97;;;4.15;;
13366;SDS011;6752;52.612;13.630;2023-03-01T10:33:26;8.30;;;4.28;;
13366;SDS011;6752;52.612;13.630;2023-03-01T10:38:28;9.40;;;5.12;;
13366;SDS011;6752;52.612;13.630;2023-03-01T10:43:43;8.73;;;4.35;;
13366;SDS011;6752;52.612;13.630;2023-03-01T10:49:05;11.32;;;5.47;;
13366;SDS011;6752;52.612;13.630;2023-03-01T10:54:18;11.07;;;5.22;;
13366;SDS011;6752;52.612;13.630;2023-03-01T10:59:35;8.30;;;4.93;;
13366;SDS011;6752;52.612;13.630;2023-03-01T11:04:36;10.07;;;4.70;;
13366;SDS011;6752;52.612;13.630;2023-03-01T11:25:13;8.38;;;3.95;;
13366;SDS011;6752;52.612;13.630;2023-03-01T11:35:26;8.30;;;4.43;;
13366;SDS011;6752;52.612;13.630;2023-03-01T11:40:40;6.62;;;3.62;;
13366;SDS011;6752;52.612;13.630;2023-03-01T11:45:39;9.70;;;4.62;;
13366;SDS011;6752;52.612;13.630;2023-03-01T12:22:11;9.38;;;4.20;;
13366;SDS011;6752;52.612;13.630;2023-03-01T12:38:06;7.62;;;3.97;;
13366;SDS011;6752;52.612;13.630;2023-03-01T12:48:43;7.60;;;3.67;;
13366;SDS011;6752;52.612;13.630;2023-03-01T12:53:49;7.45;;;3.28;;
13366;SDS011;6752;52.612;13.630;2023-03-01T12:58:55;8.03;;;3.97;;
13366;SDS011;6752;52.612;13.630;2023-03-01T13:14:46;8.75;;;3.47;;
13366;SDS011;6752;52.612;13.630;2023-03-01T13:19:56;7.12;;;3.70;;
13366;SDS011;6752;52.612;13.630;2023-03-01T13:25:01;9.77;;;4.00;;
13366;SDS011;6752;52.612;13.630;2023-03-01T13:30:03;7.87;;;3.60;;
13366;SDS011;6752;52.612;13.630;2023-03-01T13:45:23;4.93;;;2.92;;
13366;SDS011;6752;52.612;13.630;2023-03-01T13:50:46;5.95;;;3.10;;
13366;SDS011;6752;52.612;13.630;2023-03-01T13:55:47;8.30;;;4.28;;
13366;SDS011;6752;52.612;13.630;2023-03-01T14:00:56;7.37;;;3.75;;
13366;SDS011;6752;52.612;13.630;2023-03-01T14:06:07;6.60;;;3.58;;
13366;SDS011;6752;52.612;13.630;2023-03-01T14:16:36;6.12;;;3.22;;
13366;SDS011;6752;52.612;13.630;2023-03-01T14:21:40;6.70;;;3.25;;
13366;SDS011;6752;52.612;13.630;2023-03-01T14:26:43;8.50;;;3.60;;
13366;SDS011;6752;52.612;13.630;2023-03-01T14:31:45;7.93;;;3.45;;
13366;SDS011;6752;52.612;13.630;2023-03-01T14:36:48;7.23;;;3.87;;
13366;SDS011;6752;52.612;13.630;2023-03-01T14:41:50;6.83;;;3.47;;
13366;SDS011;6752;52.612;13.630;2023-03-01T14:46:53;5.93;;;3.15;;
13366;SDS011;6752;52.612;13.630;2023-03-01T14:52:04;8.02;;;3.90;;
13366;SDS011;6752;52.612;13.630;2023-03-01T15:02:08;6.43;;;3.33;;
13366;SDS011;6752;52.612;13.630;2023-03-01T15:07:11;8.20;;;4.03;;
13366;SDS011;6752;52.612;13.630;2023-03-01T15:17:33;7.30;;;4.28;;
13366;SDS011;6752;52.612;13.630;2023-03-01T15:22:35;6.65;;;3.87;;
13366;SDS011;6752;52.612;13.630;2023-03-01T15:27:37;8.48;;;4.45;;
13366;SDS011;6752;52.612;13.630;2023-03-01T15:32:40;7.03;;;3.80;;
13366;SDS011;6752;52.612;13.630;2023-03-01T15:37:46;9.05;;;4.32;;
13366;SDS011;6752;52.612;13.630;2023-03-01T15:42:47;9.43;;;5.00;;
13366;SDS011;6752;52.612;13.630;2023-03-01T15:47:50;11.63;;;4.40;;
13366;SDS011;6752;52.612;13.630;2023-03-01T15:52:52;9.50;;;4.57;;
13366;SDS011;6752;52.612;13.630;2023-03-01T15:58:01;10.25;;;5.12;;
13366;SDS011;6752;52.612;13.630;2023-03-01T16:03:09;12.65;;;4.93;;
13366;SDS011;6752;52.612;13.630;2023-03-01T16:08:11;10.18;;;5.25;;
13366;SDS011;6752;52.612;13.630;2023-03-01T16:13:13;11.43;;;5.80;;
13366;SDS011;6752;52.612;13.630;2023-03-01T16:18:15;10.88;;;5.85;;
13366;SDS011;6752;52.612;13.630;2023-03-01T16:23:18;8.07;;;4.72;;
13366;SDS011;6752;52.612;13.630;2023-03-01T16:28:20;10.60;;;4.55;;
13366;SDS011;6752;52.612;13.630;2023-03-01T16:33:22;9.32;;;4.65;;
13366;SDS011;6752;52.612;13.630;2023-03-01T16:38:25;7.22;;;4.45;;
13366;SDS011;6752;52.612;13.630;2023-03-01T16:43:27;6.93;;;4.72;;
13366;SDS011;6752;52.612;13.630;2023-03-01T16:48:30;7.32;;;4.40;;
13366;SDS011;6752;52.612;13.630;2023-03-01T16:53:33;7.30;;;4.37;;
13366;SDS011;6752;52.612;13.630;2023-03-01T16:58:35;6.75;;;4.80;;
13366;SDS011;6752;52.612;13.630;2023-03-01T17:03:37;10.18;;;5.47;;
13366;SDS011;6752;52.612;13.630;2023-03-01T17:08:39;8.43;;;5.25;;
13366;SDS011;6752;52.612;13.630;2023-03-01T17:13:42;6.97;;;4.93;;
13366;SDS011;6752;52.612;13.630;2023-03-01T17:18:44;9.13;;;6.25;;
13366;SDS011;6752;52.612;13.630;2023-03-01T17:23:46;7.87;;;5.40;;
13366;SDS011;6752;52.612;13.630;2023-03-01T17:28:49;8.15;;;5.50;;
13366;SDS011;6752;52.612;13.630;2023-03-01T17:33:51;9.73;;;5.68;;
13366;SDS011;6752;52.612;13.630;2023-03-01T17:38:53;9.15;;;5.70;;
13366;SDS011;6752;52.612;13.630;2023-03-01T17:43:56;9.95;;;5.90;;
13366;SDS011;6752;52.612;13.630;2023-03-01T17:48:58;9.90;;;6.50;;
13366;SDS011;6752;52.612;13.630;2023-03-01T17:54:00;9.63;;;5.62;;
13366;SDS011;6752;52.612;13.630;2023-03-01T17:59:03;9.65;;;6.55;;
13366;SDS011;6752;52.612;13.630;2023-03-01T18:04:05;10.40;;;6.18;;
13366;SDS011;6752;52.612;13.630;2023-03-01T18:09:08;12.85;;;8.10;;
13366;SDS011;6752;52.612;13.630;2023-03-01T18:19:12;15.77;;;10.30;;
13366;SDS011;6752;52.612;13.630;2023-03-01T18:24:14;14.30;;;11.65;;
13366;SDS011;6752;52.612;13.630;2023-03-01T18:29:17;18.95;;;9.98;;
13366;SDS011;6752;52.612;13.630;2023-03-01T18:34:19;11.15;;;8.40;;
13366;SDS011;6752;52.612;13.630;2023-03-01T18:39:22;9.55;;;7.05;;
13366;SDS011;6752;52.612;13.630;2023-03-01T18:44:24;10.73;;;7.10;;
13366;SDS011;6752;52.612;13.630;2023-03-01T18:49:26;8.23;;;6.47;;
13366;SDS011;6752;52.612;13.630;2023-03-01T18:54:28;9.43;;;7.25;;
13366;SDS011;6752;52.612;13.630;2023-03-01T18:59:31;11.15;;;7.95;;
13366;SDS011;6752;52.612;13.630;2023-03-01T19:04:33;8.45;;;7.28;;
13366;SDS011;6752;52.612;13.630;2023-03-01T19:09:36;11.12;;;7.30;;
13366;SDS011;6752;52.612;13.630;2023-03-01T19:14:38;9.57;;;7.72;;
13366;SDS011;6752;52.612;13.630;2023-03-01T19:19:40;9.35;;;8.25;;
13366;SDS011;6752;52.612;13.630;2023-03-01T19:24:43;13.85;;;9.57;;
13366;SDS011;6752;52.612;13.630;2023-03-01T19:29:45;9.43;;;8.05;;
13366;SDS011;6752;52.612;13.630;2023-03-01T19:34:48;14.15;;;8.75;;
13366;SDS011;6752;52.612;13.630;2023-03-01T19:39:50;10.93;;;9.00;;
13366;SDS011;6752;52.612;13.630;2023-03-01T19:44:53;11.02;;;9.18;;
13366;SDS011;6752;52.612;13.630;2023-03-01T19:49:55;13.70;;;9.88;;
13366;SDS011;6752;52.612;13.630;2023-03-01T19:54:57;11.05;;;9.23;;
13366;SDS011;6752;52.612;13.630;2023-03-01T20:00:00;14.98;;;10.57;;
13366;SDS011;6752;52.612;13.630;2023-03-01T20:05:02;12.00;;;9.93;;
13366;SDS011;6752;52.612;13.630;2023-03-01T20:15:07;11.77;;;9.65;;
13366;SDS011;6752;52.612;13.630;2023-03-01T20:20:09;12.82;;;10.55;;
13366;SDS011;6752;52.612;13.630;2023-03-01T20:25:12;11.52;;;9.30;;
13366;SDS011;6752;52.612;13.630;2023-03-01T20:30:14;10.82;;;9.73;;
13366;SDS011;6752;52.612;13.630;2023-03-01T20:35:17;11.32;;;9.40;;
13366;SDS011;6752;52.612;13.630;2023-03-01T20:40:19;12.88;;;9.40;;
13366;SDS011;6752;52.612;13.630;2023-03-01T20:45:21;13.30;;;10.00;;
13366;SDS011;6752;52.612;13.630;2023-03-01T20:50:24;11.63;;;10.43;;
13366;SDS011;6752;52.612;13.630;2023-03-01T20:55:26;11.00;;;9.80;;
13366;SDS011;6752;52.612;13.630;2023-03-01T21:00:29;11.85;;;10.10;;
13366;SDS011;6752;52.612;13.630;2023-03-01T21:05:31;11.27;;;10.07;;
13366;SDS011;6752;52.612;13.630;2023-03-01T21:10:33;16.20;;;10.32;;
13366;SDS011;6752;52.612;13.630;2023-03-01T21:15:36;11.80;;;10.40;;
13366;SDS011;6752;52.612;13.630;2023-03-01T21:20:38;11.80;;;10.60;;
13366;SDS011;6752;52.612;13.630;2023-03-01T21:25:40;12.15;;;10.30;;
13366;SDS011;6752;52.612;13.630;2023-03-01T21:40:47;13.65;;;10.30;;
13366;SDS011;6752;52.612;13.630;2023-03-01T21:45:49;12.45;;;10.50;;
13366;SDS011;6752;52.612;13.630;2023-03-01T21:50:55;11.57;;;10.38;;
13366;SDS011;6752;52.612;13.630;2023-03-01T21:55:57;14.48;;;10.38;;
13366;SDS011;6752;52.612;13.630;2023-03-01T22:01:06;12.60;;;10.63;;
13366;SDS011;6752;52.612;13.630;2023-03-01T22:06:17;15.77;;;11.00;;
13366;SDS011;6752;52.612;13.630;2023-03-01T22:11:19;14.57;;;11.77;;
13366;SDS011;6752;52.612;13.630;2023-03-01T22:16:22;12.43;;;10.60;;
13366;SDS011;6752;52.612;13.630;2023-03-01T22:21:23;11.98;;;10.70;;
13366;SDS011;6752;52.612;13.630;2023-03-01T22:36:33;13.93;;;11.35;;
13366;SDS011;6752;52.612;13.630;2023-03-01T22:41:37;15.70;;;12.05;;
13366;SDS011;6752;52.612;13.630;2023-03-01T22:46:40;15.55;;;11.25;;
13366;SDS011;6752;52.612;13.630;2023-03-01T22:51:42;14.07;;;11.57;;
13366;SDS011;6752;52.612;13.630;2023-03-01T22:56:45;14.30;;;11.70;;
13366;SDS011;6752;52.612;13.630;2023-03-01T23:01:47;13.90;;;11.55;;
13366;SDS011;6752;52.612;13.630;2023-03-01T23:06:49;13.05;;;11.35;;
13366;SDS011;6752;52.612;13.630;2023-03-01T23:11:52;15.18;;;12.93;;
13366;SDS011;6752;52.612;13.630;2023-03-01T23:16:54;16.55;;;12.70;;
13366;SDS011;6752;52.612;13.630;2023-03-01T23:21:57;13.18;;;11.82;;
13366;SDS011;6752;52.612;13.630;2023-03-01T23:26:59;13.45;;;10.90;;
13366;SDS011;6752;52.612;13.630;2023-03-01T23:32:01;12.73;;;10.90;;
13366;SDS011;6752;52.612;13.630;2023-03-01T23:37:04;13.50;;;12.10;;
13366;SDS011;6752;52.612;13.630;2023-03-01T23:47:08;12.82;;;11.48;;
13366;SDS011;6752;52.612;13.630;2023-03-01T23:52:11;14.55;;;13.07;;
13366;SDS011;6752;52.612;13.630;2023-03-01T23:57:13;17.02;;;14.25;;
